Time;durP1;ratioP1;P1;durP2;ratioP2;P2;SDS_P1;SDS_P2;PMS_P1;PMS_P2;Temp;Humidity;BMP_temperature;BMP_pressure;BME280_temperature;BME280_humidity;BME280_pressure;Samples;Min_cycle;Max_cycle;Signal;HPM_P1;HPM_P2
2023/11/19 00:02:08;;;;;;;4.63;4.13;;;7.80;99.90;;;;;;4955664;29;20846;-69
2023/11/19 00:04:39;;;;;;;5.47;4.93;;;7.80;99.90;;;;;;4955345;28;20676;-69
2023/11/19 00:07:06;;;;;;;6.47;4.87;;;7.90;99.90;;;;;;4952448;29;20439;-69
2023/11/19 00:09:36;;;;;;;4.10;3.70;;;8.00;99.90;;;;;;4952933;28;20480;-69
2023/11/19 00:12:05;;;;;;;4.00;3.30;;;8.00;99.90;;;;;;4951971;28;20441;-69
2023/11/19 00:14:31;;;;;;;3.27;3.07;;;8.10;99.90;;;;;;4955525;28;20895;-69
2023/11/19 00:16:56;;;;;;;3.80;3.47;;;8.20;99.90;;;;;;4954411;29;20579;-68
2023/11/19 00:19:22;;;;;;;3.40;3.10;;;8.30;99.90;;;;;;4953863;29;20177;-69
2023/11/19 00:21:47;;;;;;;3.80;3.20;;;8.30;99.90;;;;;;4945997;29;20296;-69
2023/11/19 00:24:16;;;;;;;4.53;3.00;;;8.30;99.90;;;;;;4955366;29;20204;-69
2023/11/19 00:26:41;;;;;;;3.37;2.83;;;8.40;99.90;;;;;;4954612;28;20224;-69
2023/11/19 00:29:07;;;;;;;3.37;2.70;;;8.40;99.90;;;;;;4953966;29;20429;-69
2023/11/19 00:31:33;;;;;;;3.73;2.77;;;8.40;99.90;;;;;;4952602;29;20191;-70
2023/11/19 00:33:58;;;;;;;9.03;2.67;;;8.40;99.90;;;;;;4954163;29;20312;-69
2023/11/19 00:36:24;;;;;;;2.90;2.60;;;8.50;99.90;;;;;;4954957;29;20267;-69
2023/11/19 00:38:52;;;;;;;4.43;2.60;;;8.50;99.90;;;;;;4955263;29;20634;-69
2023/11/19 00:41:18;;;;;;;4.37;3.70;;;8.60;99.90;;;;;;4949636;28;20551;-70
2023/11/19 00:43:43;;;;;;;5.13;3.07;;;8.60;99.90;;;;;;4950547;29;20547;-69
2023/11/19 00:46:10;;;;;;;4.33;2.43;;;8.60;99.90;;;;;;4969702;28;20169;-69
2023/11/19 00:48:36;;;;;;;3.57;2.33;;;8.60;99.90;;;;;;4954860;28;20763;-69
2023/11/19 00:51:02;;;;;;;2.80;2.53;;;8.70;99.90;;;;;;4949053;28;20447;-69
2023/11/19 00:53:27;;;;;;;3.13;2.53;;;8.70;99.90;;;;;;4954277;28;20561;-69
2023/11/19 00:55:53;;;;;;;2.70;2.50;;;8.80;99.90;;;;;;4954247;29;20180;-70
2023/11/19 00:58:18;;;;;;;2.30;2.07;;;8.80;99.90;;;;;;4954137;29;20641;-69
2023/11/19 01:00:44;;;;;;;2.80;2.10;;;8.80;99.90;;;;;;4954581;29;20200;-69
2023/11/19 01:03:11;;;;;;;1.80;1.70;;;8.80;99.90;;;;;;4950786;28;20181;-70
2023/11/19 01:05:37;;;;;;;2.10;1.90;;;8.90;99.90;;;;;;4954623;28;20616;-70
2023/11/19 01:08:04;;;;;;;2.67;2.00;;;8.90;99.90;;;;;;4954445;29;20427;-70
2023/11/19 01:10:30;;;;;;;2.20;1.63;;;8.90;99.90;;;;;;4954787;28;20296;-69
2023/11/19 01:12:55;;;;;;;4.13;2.10;;;8.90;99.90;;;;;;4947967;29;20594;-70
2023/11/19 01:15:21;;;;;;;1.63;1.53;;;9.00;99.90;;;;;;4954109;29;20207;-70
2023/11/19 01:17:46;;;;;;;2.83;2.23;;;9.00;99.90;;;;;;4954134;29;20177;-69
2023/11/19 01:20:13;;;;;;;1.83;1.33;;;9.00;99.90;;;;;;4954346;29;20173;-69
2023/11/19 01:22:39;;;;;;;1.77;1.50;;;9.10;99.90;;;;;;4952375;28;20172;-69
2023/11/19 01:25:05;;;;;;;2.60;1.70;;;9.10;99.90;;;;;;4948954;28;20879;-69
2023/11/19 01:27:31;;;;;;;2.10;1.23;;;9.10;99.90;;;;;;4949450;28;20559;-69
2023/11/19 01:29:56;;;;;;;1.17;1.07;;;9.20;99.90;;;;;;4954282;29;20425;-70
2023/11/19 01:32:23;;;;;;;1.23;1.13;;;9.20;99.90;;;;;;4953555;29;20199;-70
2023/11/19 01:34:50;;;;;;;1.40;1.30;;;9.20;99.90;;;;;;4951553;23;20229;-70
2023/11/19 01:37:16;;;;;;;1.83;1.20;;;9.20;99.90;;;;;;4915284;29;20505;-70
2023/11/19 01:39:44;;;;;;;1.67;1.10;;;9.30;99.90;;;;;;4916316;29;20213;-70
2023/11/19 01:42:11;;;;;;;1.30;1.20;;;9.30;99.90;;;;;;4913870;29;20289;-70
2023/11/19 01:44:37;;;;;;;0.90;0.90;;;9.30;99.90;;;;;;4909912;29;20470;-70
2023/11/19 01:47:03;;;;;;;0.80;0.80;;;9.30;99.90;;;;;;4915521;29;20436;-70
2023/11/19 01:49:31;;;;;;;4.30;1.57;;;9.30;99.90;;;;;;4915995;29;20177;-70
2023/11/19 01:51:58;;;;;;;3.03;1.00;;;9.40;99.90;;;;;;4914638;29;20453;-70
2023/11/19 01:54:24;;;;;;;2.20;1.10;;;9.40;99.90;;;;;;4914036;29;20458;-70
2023/11/19 01:56:49;;;;;;;1.37;1.20;;;9.40;99.90;;;;;;4915325;29;20435;-70
2023/11/19 01:59:16;;;;;;;0.80;0.80;;;9.40;99.90;;;;;;4908034;29;20194;-70
2023/11/19 02:01:42;;;;;;;0.60;0.60;;;9.40;99.90;;;;;;4915569;29;20686;-70
2023/11/19 02:04:08;;;;;;;1.17;0.80;;;9.50;99.90;;;;;;4912067;29;20688;-70
2023/11/19 02:06:36;;;;;;;1.30;1.20;;;9.50;99.90;;;;;;4910750;29;20194;-70
2023/11/19 02:09:07;;;;;;;3.10;1.00;;;9.50;99.90;;;;;;4914302;29;20445;-70
2023/11/19 02:11:33;;;;;;;1.07;0.90;;;9.50;99.90;;;;;;4914463;29;20446;-70
2023/11/19 02:13:58;;;;;;;0.80;0.70;;;9.50;99.90;;;;;;4909463;29;20835;-70
2023/11/19 02:16:24;;;;;;;1.17;0.70;;;9.50;99.90;;;;;;4914533;29;20446;-70
2023/11/19 02:18:49;;;;;;;0.80;0.73;;;9.60;99.90;;;;;;4915530;29;20190;-70
2023/11/19 02:21:17;;;;;;;0.90;0.90;;;9.60;99.90;;;;;;4915687;29;20198;-70
2023/11/19 02:23:42;;;;;;;0.80;0.80;;;9.60;99.90;;;;;;4915605;29;20218;-70
2023/11/19 02:26:42;;;;;;;1.20;0.87;;;9.60;99.90;;;;;;4910158;29;20430;-70
2023/11/19 02:29:07;;;;;;;0.60;0.60;;;9.60;99.90;;;;;;4913773;29;20193;-70
2023/11/19 02:31:34;;;;;;;0.90;0.90;;;9.60;99.90;;;;;;4915803;29;20434;-70
2023/11/19 02:34:02;;;;;;;0.80;0.80;;;9.70;99.90;;;;;;4914600;29;20605;-70
2023/11/19 02:36:28;;;;;;;0.70;0.70;;;9.70;99.90;;;;;;4914492;29;20439;-70
2023/11/19 02:38:53;;;;;;;0.90;0.70;;;9.70;99.90;;;;;;4916216;29;20440;-70
2023/11/19 02:41:19;;;;;;;0.90;0.73;;;9.70;99.90;;;;;;4918833;29;20206;-70
2023/11/19 02:43:44;;;;;;;1.40;1.23;;;9.70;99.90;;;;;;4915134;29;20257;-70
2023/11/19 02:46:10;;;;;;;0.87;0.87;;;9.80;99.90;;;;;;4915685;29;20206;-70
2023/11/19 02:48:36;;;;;;;1.57;0.60;;;9.80;99.90;;;;;;4918046;29;20269;-70
2023/11/19 02:51:09;;;;;;;0.93;0.67;;;9.80;99.90;;;;;;4919037;29;20508;-70
2023/11/19 02:53:35;;;;;;;0.50;0.50;;;9.80;99.90;;;;;;4919172;29;20841;-70
2023/11/19 02:56:15;;;;;;;0.70;0.70;;;9.80;99.90;;;;;;4918953;29;20442;-70
2023/11/19 02:58:44;;;;;;;1.53;0.60;;;9.80;99.90;;;;;;4916256;29;20440;-70
2023/11/19 03:01:12;;;;;;;0.90;0.77;;;9.80;99.90;;;;;;4918669;29;20469;-70
2023/11/19 03:03:40;;;;;;;2.10;0.60;;;9.80;99.90;;;;;;4918815;29;20977;-70
2023/11/19 03:06:06;;;;;;;0.63;0.60;;;9.90;99.90;;;;;;4917741;29;20881;-70
2023/11/19 03:08:33;;;;;;;0.80;0.70;;;9.90;99.90;;;;;;4913169;29;20521;-70
2023/11/19 03:10:59;;;;;;;0.73;0.73;;;9.90;99.90;;;;;;4918714;29;20426;-70
2023/11/19 03:13:24;;;;;;;0.80;0.80;;;9.90;99.90;;;;;;4912687;29;20446;-70
2023/11/19 03:15:50;;;;;;;1.43;0.80;;;9.90;99.90;;;;;;4918451;29;20454;-70
2023/11/19 03:18:15;;;;;;;0.60;0.60;;;9.90;99.90;;;;;;4916730;29;20179;-70
2023/11/19 03:20:41;;;;;;;0.90;0.60;;;9.90;99.90;;;;;;4918473;29;20357;-70
2023/11/19 03:23:06;;;;;;;0.50;0.50;;;9.90;99.90;;;;;;4918717;29;20709;-70
2023/11/19 03:25:36;;;;;;;1.03;0.80;;;9.90;99.90;;;;;;4915703;29;20205;-70
2023/11/19 03:28:03;;;;;;;0.90;0.83;;;10.00;99.90;;;;;;4912028;29;20414;-70
2023/11/19 03:30:29;;;;;;;0.73;0.73;;;10.00;99.90;;;;;;4912364;29;20434;-70
2023/11/19 03:32:56;;;;;;;0.90;0.90;;;10.00;99.90;;;;;;4917365;29;20481;-70
2023/11/19 03:35:22;;;;;;;0.70;0.70;;;10.00;99.90;;;;;;4918497;29;20466;-70
2023/11/19 03:37:48;;;;;;;0.77;0.67;;;10.00;99.90;;;;;;4916921;29;20822;-70
2023/11/19 03:40:14;;;;;;;5.10;0.80;;;10.00;99.90;;;;;;4916412;29;20486;-70
2023/11/19 03:42:40;;;;;;;1.07;0.57;;;10.00;99.90;;;;;;4911279;29;20233;-70
2023/11/19 03:45:08;;;;;;;1.47;0.80;;;10.00;99.90;;;;;;4917793;29;20553;-70
2023/11/19 03:47:34;;;;;;;0.60;0.60;;;10.00;99.90;;;;;;4917633;29;20654;-70
2023/11/19 03:49:59;;;;;;;0.90;0.77;;;10.00;99.90;;;;;;4912598;29;20446;-70
2023/11/19 03:52:26;;;;;;;0.70;0.43;;;10.00;99.90;;;;;;4918065;29;20463;-70
2023/11/19 03:54:53;;;;;;;0.70;0.70;;;10.00;99.90;;;;;;4917967;29;20205;-70
2023/11/19 03:57:18;;;;;;;1.00;0.77;;;10.00;99.90;;;;;;4912978;29;20434;-70
2023/11/19 03:59:44;;;;;;;0.70;0.70;;;10.00;99.90;;;;;;4917009;29;21032;-70
2023/11/19 04:02:10;;;;;;;0.87;0.70;;;10.10;99.90;;;;;;4913030;29;20224;-70
2023/11/19 04:04:36;;;;;;;3.30;0.70;;;10.10;99.90;;;;;;4917650;29;20194;-70
2023/11/19 04:07:03;;;;;;;1.23;0.70;;;10.10;99.90;;;;;;4913252;29;20970;-70
2023/11/19 04:09:29;;;;;;;5.17;0.80;;;10.10;99.90;;;;;;4915450;29;20529;-70
2023/11/19 04:11:54;;;;;;;0.60;0.60;;;10.10;99.90;;;;;;4914588;29;20445;-70
2023/11/19 04:14:20;;;;;;;1.07;0.50;;;10.10;99.90;;;;;;4909666;29;20817;-70
2023/11/19 04:16:46;;;;;;;0.60;0.60;;;10.10;99.90;;;;;;4910913;29;20194;-70
2023/11/19 04:19:12;;;;;;;0.50;0.50;;;10.10;99.90;;;;;;4917520;29;20265;-70
2023/11/19 04:21:40;;;;;;;1.40;0.60;;;10.10;99.90;;;;;;4916539;29;21052;-70
2023/11/19 04:24:06;;;;;;;0.80;0.60;;;10.10;99.90;;;;;;4917227;29;20229;-70
2023/11/19 04:26:32;;;;;;;0.70;0.70;;;10.10;99.90;;;;;;4914252;29;20434;-70
2023/11/19 04:28:58;;;;;;;0.50;0.50;;;10.20;99.90;;;;;;4915897;29;20972;-70
2023/11/19 04:31:28;;;;;;;2.50;0.60;;;10.20;99.90;;;;;;4907821;29;20261;-70
2023/11/19 04:33:55;;;;;;;1.17;0.50;;;10.20;99.90;;;;;;4916853;29;20434;-70
2023/11/19 04:36:24;;;;;;;0.67;0.60;;;10.20;99.90;;;;;;4905449;29;20442;-70
2023/11/19 04:38:49;;;;;;;0.97;0.50;;;10.20;99.90;;;;;;4916471;29;20441;-70
2023/11/19 04:41:15;;;;;;;0.63;0.50;;;10.20;99.90;;;;;;4908996;29;20965;-70
2023/11/19 04:43:40;;;;;;;0.60;0.60;;;10.30;99.90;;;;;;4916842;29;20243;-70
2023/11/19 04:46:06;;;;;;;1.07;0.60;;;10.30;99.90;;;;;;4916126;29;20286;-70
2023/11/19 04:48:32;;;;;;;0.83;0.70;;;10.30;99.90;;;;;;4916670;29;20175;-70
2023/11/19 04:50:57;;;;;;;1.13;0.73;;;10.30;99.90;;;;;;4913596;29;20439;-70
2023/11/19 04:53:23;;;;;;;0.77;0.60;;;10.30;99.90;;;;;;4903881;29;20182;-70
2023/11/19 04:55:48;;;;;;;0.50;0.50;;;10.40;99.90;;;;;;4911555;29;20203;-70
2023/11/19 04:58:14;;;;;;;0.60;0.60;;;10.40;99.90;;;;;;4915565;29;20184;-70
2023/11/19 05:00:39;;;;;;;0.50;0.50;;;10.40;99.90;;;;;;4916680;29;20206;-70
2023/11/19 05:03:05;;;;;;;0.70;0.70;;;10.40;99.90;;;;;;4909259;29;20179;-70
2023/11/19 05:05:30;;;;;;;1.90;0.50;;;10.40;99.90;;;;;;4909177;29;20195;-70
2023/11/19 05:07:56;;;;;;;0.60;0.60;;;10.50;99.90;;;;;;4916339;29;20205;-70
2023/11/19 05:10:22;;;;;;;0.90;0.50;;;10.50;99.90;;;;;;4916085;29;20525;-70
2023/11/19 05:12:48;;;;;;;1.80;0.70;;;10.50;99.90;;;;;;4903152;29;20497;-70
2023/11/19 05:15:14;;;;;;;0.70;0.70;;;10.50;99.90;;;;;;4916081;29;20209;-70
2023/11/19 05:17:40;;;;;;;0.50;0.50;;;10.50;99.90;;;;;;4915493;29;20581;-70
2023/11/19 05:20:13;;;;;;;0.60;0.60;;;10.50;99.90;;;;;;4916291;29;20429;-70
2023/11/19 05:22:42;;;;;;;0.80;0.80;;;10.50;99.90;;;;;;4916436;29;20465;-70
2023/11/19 05:25:11;;;;;;;0.80;0.80;;;10.50;99.90;;;;;;4913312;29;20454;-70
2023/11/19 05:27:37;;;;;;;0.70;0.70;;;10.50;99.90;;;;;;4910323;29;20434;-70
2023/11/19 05:30:07;;;;;;;2.87;0.70;;;10.50;99.90;;;;;;4915165;29;20530;-70
2023/11/19 05:32:33;;;;;;;1.50;1.40;;;10.50;99.90;;;;;;4909359;29;20844;-70
2023/11/19 05:34:58;;;;;;;2.60;1.10;;;10.50;99.90;;;;;;4907160;29;20513;-70
2023/11/19 05:37:24;;;;;;;0.67;0.60;;;10.50;99.90;;;;;;4915912;29;20210;-70
2023/11/19 05:39:50;;;;;;;0.70;0.70;;;10.50;99.90;;;;;;4916194;29;20602;-70
2023/11/19 05:42:16;;;;;;;0.70;0.70;;;10.50;99.90;;;;;;4910565;29;20557;-70
2023/11/19 05:44:41;;;;;;;0.73;0.70;;;10.50;99.90;;;;;;4913967;29;20213;-70
2023/11/19 05:47:07;;;;;;;0.70;0.70;;;10.50;99.90;;;;;;4914939;29;20553;-70
2023/11/19 05:49:32;;;;;;;1.40;0.67;;;10.60;99.90;;;;;;4915910;29;20179;-70
2023/11/19 05:51:59;;;;;;;0.77;0.60;;;10.60;99.90;;;;;;4916087;29;20179;-70
2023/11/19 05:54:25;;;;;;;0.70;0.70;;;10.60;99.90;;;;;;4910227;29;20609;-70
2023/11/19 05:56:53;;;;;;;0.53;0.50;;;10.60;99.90;;;;;;4911133;29;20446;-70
2023/11/19 05:59:19;;;;;;;0.67;0.67;;;10.60;99.90;;;;;;4915724;29;20434;-70
2023/11/19 06:01:45;;;;;;;1.10;0.77;;;10.60;99.90;;;;;;4909227;29;20482;-70
2023/11/19 06:04:11;;;;;;;0.83;0.70;;;10.60;99.90;;;;;;4914442;29;20469;-70
2023/11/19 06:06:36;;;;;;;0.80;0.63;;;10.60;99.90;;;;;;4915597;29;20200;-70
2023/11/19 06:09:03;;;;;;;1.07;0.60;;;10.60;99.90;;;;;;4906207;29;20248;-70
2023/11/19 06:11:28;;;;;;;1.77;0.90;;;10.60;99.90;;;;;;4914590;29;20188;-70
2023/11/19 06:13:54;;;;;;;1.43;0.60;;;10.60;99.90;;;;;;4919722;29;20505;-70
2023/11/19 06:16:19;;;;;;;5.10;0.90;;;10.60;99.90;;;;;;4917920;29;20186;-70
2023/11/19 06:18:45;;;;;;;0.60;0.60;;;10.60;99.90;;;;;;4921709;29;20185;-69
2023/11/19 06:21:12;;;;;;;1.73;1.00;;;10.60;99.90;;;;;;4921999;29;20205;-69
2023/11/19 06:23:37;;;;;;;0.60;0.60;;;10.60;99.90;;;;;;4918539;29;20559;-69
2023/11/19 06:26:05;;;;;;;0.90;0.90;;;10.60;99.90;;;;;;4918767;29;20545;-70
2023/11/19 06:28:30;;;;;;;1.07;0.70;;;10.60;99.90;;;;;;4921402;29;20178;-70
2023/11/19 06:30:57;;;;;;;0.80;0.80;;;10.60;99.90;;;;;;4921830;29;20441;-70
2023/11/19 06:33:23;;;;;;;1.07;1.07;;;10.60;99.90;;;;;;4921906;29;20170;-70
2023/11/19 06:35:49;;;;;;;0.90;0.90;;;10.60;99.90;;;;;;4918089;29;20502;-70
2023/11/19 06:38:15;;;;;;;0.73;0.73;;;10.60;99.90;;;;;;4918661;29;20481;-69
2023/11/19 06:40:41;;;;;;;4.23;2.90;;;10.60;99.90;;;;;;4917837;29;20534;-70
2023/11/19 06:43:08;;;;;;;1.20;1.10;;;10.60;99.90;;;;;;4921767;29;20178;-70
2023/11/19 06:45:34;;;;;;;0.70;0.70;;;10.60;99.90;;;;;;4921423;29;20456;-70
2023/11/19 06:48:05;;;;;;;2.50;0.80;;;10.70;99.90;;;;;;4920736;29;20442;-70
2023/11/19 06:50:32;;;;;;;0.60;0.60;;;10.60;99.90;;;;;;4920981;29;20672;-70
2023/11/19 06:52:58;;;;;;;0.80;0.80;;;10.60;99.90;;;;;;4920832;29;20442;-70
2023/11/19 06:55:23;;;;;;;3.10;1.17;;;10.60;99.90;;;;;;4919861;29;20998;-70
2023/11/19 06:57:49;;;;;;;0.90;0.90;;;10.60;99.90;;;;;;4914062;29;20189;-70
2023/11/19 07:00:15;;;;;;;1.00;1.00;;;10.60;99.90;;;;;;4920488;29;20193;-70
2023/11/19 07:02:40;;;;;;;0.87;0.87;;;10.60;99.90;;;;;;4917434;29;20217;-70
2023/11/19 07:05:08;;;;;;;1.17;1.00;;;10.60;99.90;;;;;;4919569;29;20442;-70
2023/11/19 07:07:33;;;;;;;1.70;0.80;;;10.60;99.90;;;;;;4921426;29;20645;-70
2023/11/19 07:09:59;;;;;;;1.13;0.97;;;10.70;99.90;;;;;;4913975;29;20466;-70
2023/11/19 07:12:27;;;;;;;2.80;1.07;;;10.60;99.90;;;;;;4915806;29;20205;-70
2023/11/19 07:14:54;;;;;;;1.30;1.20;;;10.70;99.90;;;;;;4920625;29;20210;-70
2023/11/19 07:17:20;;;;;;;1.23;1.13;;;10.70;99.90;;;;;;4902763;29;20426;-70
2023/11/19 07:19:47;;;;;;;1.53;1.23;;;10.70;99.90;;;;;;4920295;29;20649;-70
2023/11/19 07:22:12;;;;;;;1.27;0.70;;;10.70;99.90;;;;;;4916661;29;20222;-70
2023/11/19 07:24:41;;;;;;;1.70;1.60;;;10.70;99.90;;;;;;4918495;29;21195;-70
2023/11/19 07:27:08;;;;;;;1.90;1.80;;;10.70;99.90;;;;;;4917371;29;20190;-70
2023/11/19 07:29:34;;;;;;;1.37;0.77;;;10.70;99.90;;;;;;4917583;29;20434;-70
2023/11/19 07:32:01;;;;;;;1.13;0.90;;;10.70;99.90;;;;;;4918331;29;20433;-70
2023/11/19 07:34:28;;;;;;;1.30;1.20;;;10.70;99.90;;;;;;4933684;23;20846;-69
2023/11/19 07:36:53;;;;;;;2.40;1.37;;;10.70;99.90;;;;;;4917644;29;20431;-69
2023/11/19 07:39:20;;;;;;;2.70;1.50;;;10.70;99.90;;;;;;4915249;29;20431;-69
2023/11/19 07:41:46;;;;;;;2.40;1.83;;;10.70;99.90;;;;;;4917916;29;20306;-69
2023/11/19 07:44:11;;;;;;;2.20;2.07;;;10.70;99.90;;;;;;4916577;29;20544;-69
2023/11/19 07:46:37;;;;;;;1.70;1.60;;;10.80;99.90;;;;;;4917816;29;20704;-69
2023/11/19 07:49:03;;;;;;;2.60;1.87;;;10.80;99.90;;;;;;4932627;29;20274;-69
2023/11/19 07:51:28;;;;;;;1.40;1.30;;;10.80;99.90;;;;;;4917438;29;20650;-69
2023/11/19 07:53:54;;;;;;;1.70;1.57;;;10.80;99.90;;;;;;4916917;29;20646;-69
2023/11/19 07:56:19;;;;;;;2.10;1.37;;;10.90;99.90;;;;;;4917741;29;20181;-69
2023/11/19 07:58:45;;;;;;;1.93;1.30;;;10.90;99.90;;;;;;4917031;29;20182;-69
2023/11/19 08:01:10;;;;;;;1.13;1.00;;;10.90;99.90;;;;;;4915751;29;20217;-69
2023/11/19 08:03:36;;;;;;;1.37;1.27;;;10.90;99.90;;;;;;4917691;29;20198;-69
2023/11/19 08:06:03;;;;;;;1.30;1.10;;;10.90;99.90;;;;;;4917188;29;20210;-69
2023/11/19 08:08:32;;;;;;;1.30;1.20;;;10.90;99.90;;;;;;4916940;29;20185;-69
2023/11/19 08:10:58;;;;;;;0.90;0.90;;;11.00;99.90;;;;;;4913636;29;20574;-69
2023/11/19 08:13:25;;;;;;;1.23;1.13;;;11.00;99.90;;;;;;4916835;29;20434;-69
2023/11/19 08:15:51;;;;;;;2.20;0.93;;;11.00;99.90;;;;;;4917481;29;20461;-69
2023/11/19 08:18:18;;;;;;;0.90;0.90;;;11.10;99.90;;;;;;4916571;29;20443;-69
2023/11/19 08:20:44;;;;;;;0.87;0.80;;;11.10;99.90;;;;;;4915716;29;21028;-69
2023/11/19 08:23:10;;;;;;;4.17;2.50;;;11.10;99.90;;;;;;4916769;29;20941;-69
2023/11/19 08:25:36;;;;;;;1.30;1.20;;;11.20;99.90;;;;;;4915877;29;20486;-69
2023/11/19 08:28:03;;;;;;;2.70;1.30;;;11.30;99.90;;;;;;4916208;29;20193;-69
2023/11/19 08:30:29;;;;;;;2.13;1.03;;;11.40;99.90;;;;;;4917163;29;20172;-69
2023/11/19 08:32:54;;;;;;;1.00;1.00;;;11.50;99.90;;;;;;4916743;29;20933;-69
2023/11/19 08:35:20;;;;;;;1.43;0.80;;;11.60;99.90;;;;;;4917084;29;20211;-69
2023/11/19 08:37:46;;;;;;;0.80;0.73;;;12.00;99.90;;;;;;4915900;29;20170;-69
2023/11/19 08:40:12;;;;;;;3.80;1.97;;;13.30;99.90;;;;;;4916607;29;20945;-69
2023/11/19 08:42:39;;;;;;;1.10;1.00;;;14.30;99.90;;;;;;4914558;29;20206;-69
2023/11/19 08:45:05;;;;;;;0.70;0.70;;;14.20;99.90;;;;;;4916899;29;20492;-69
2023/11/19 08:47:30;;;;;;;1.50;1.27;;;13.80;99.90;;;;;;4916145;29;20818;-69
2023/11/19 08:49:56;;;;;;;1.57;0.80;;;13.40;99.90;;;;;;4916951;29;20481;-69
2023/11/19 08:52:22;;;;;;;1.90;1.03;;;13.10;99.90;;;;;;4916399;29;20183;-69
2023/11/19 08:54:47;;;;;;;1.90;1.40;;;12.80;99.90;;;;;;4916252;29;20205;-69
2023/11/19 08:57:13;;;;;;;1.03;1.03;;;12.70;99.90;;;;;;4916308;29;20434;-69
2023/11/19 08:59:38;;;;;;;0.90;0.90;;;12.80;99.90;;;;;;4916817;29;20705;-69
2023/11/19 09:02:07;;;;;;;1.20;1.10;;;12.90;99.90;;;;;;4914844;29;20228;-69
2023/11/19 09:04:33;;;;;;;1.20;1.10;;;13.20;99.90;;;;;;4916104;29;20201;-69
2023/11/19 09:06:59;;;;;;;3.30;1.27;;;13.60;99.90;;;;;;4916381;29;20835;-69
2023/11/19 09:09:25;;;;;;;1.13;1.10;;;14.20;99.90;;;;;;4916081;29;20182;-69
2023/11/19 09:11:50;;;;;;;1.10;1.00;;;14.80;99.90;;;;;;4915706;29;20547;-69
2023/11/19 09:14:18;;;;;;;1.17;1.17;;;14.80;99.90;;;;;;4915561;29;20273;-69
2023/11/19 09:16:43;;;;;;;1.53;1.43;;;14.60;99.90;;;;;;4916264;29;20205;-69
2023/11/19 09:19:09;;;;;;;1.27;1.17;;;14.10;99.90;;;;;;4916669;29;20949;-69
2023/11/19 09:21:38;;;;;;;1.60;1.40;;;13.80;99.90;;;;;;4914659;29;20210;-69
2023/11/19 09:24:04;;;;;;;1.67;1.17;;;13.60;99.90;;;;;;4914444;29;20257;-69
2023/11/19 09:26:30;;;;;;;1.40;1.30;;;13.40;99.90;;;;;;4915834;29;20869;-69
2023/11/19 09:28:56;;;;;;;1.37;1.27;;;13.30;99.90;;;;;;4929586;29;20941;-69
2023/11/19 09:31:21;;;;;;;1.57;1.03;;;13.40;99.90;;;;;;4916230;29;20521;-69
2023/11/19 09:33:46;;;;;;;0.70;0.70;;;14.00;99.90;;;;;;4915384;29;20206;-69
2023/11/19 09:36:16;;;;;;;1.97;1.77;;;14.40;99.90;;;;;;4915871;29;20301;-69
2023/11/19 09:38:43;;;;;;;2.27;1.80;;;14.40;99.90;;;;;;4915352;29;20182;-69
2023/11/19 09:41:12;;;;;;;1.13;1.00;;;14.30;99.90;;;;;;4915916;29;20468;-69
2023/11/19 09:43:39;;;;;;;0.93;0.90;;;14.90;99.90;;;;;;4914082;29;21004;-69
2023/11/19 09:46:13;;;;;;;0.87;0.80;;;15.40;99.90;;;;;;4914831;29;20537;-69
2023/11/19 09:48:42;;;;;;;0.90;0.90;;;16.60;99.90;;;;;;4910844;29;20445;-69
2023/11/19 09:51:09;;;;;;;1.37;1.20;;;17.40;99.90;;;;;;4913629;29;20538;-69
2023/11/19 09:53:36;;;;;;;1.53;1.43;;;17.70;99.90;;;;;;4915852;29;20454;-69
2023/11/19 09:56:03;;;;;;;2.50;1.30;;;17.50;99.90;;;;;;4914732;29;20508;-69
2023/11/19 09:58:30;;;;;;;1.30;1.20;;;17.50;99.90;;;;;;4915742;29;20422;-70
2023/11/19 10:00:58;;;;;;;3.30;1.00;;;18.80;99.90;;;;;;4915123;29;20469;-70
2023/11/19 10:03:26;;;;;;;1.27;0.73;;;20.60;99.90;;;;;;4915493;29;20429;-70
2023/11/19 10:05:52;;;;;;;1.50;1.40;;;21.40;99.90;;;;;;4908616;29;21232;-70
2023/11/19 10:08:18;;;;;;;1.20;0.90;;;21.50;99.90;;;;;;4914574;29;20438;-70
2023/11/19 10:10:44;;;;;;;1.10;1.00;;;21.00;99.90;;;;;;4915150;29;20446;-70
2023/11/19 10:13:09;;;;;;;1.13;1.03;;;19.90;99.90;;;;;;4915541;29;20181;-70
2023/11/19 10:15:38;;;;;;;1.90;1.80;;;19.20;99.90;;;;;;4915087;29;20243;-69
2023/11/19 10:18:05;;;;;;;1.67;0.90;;;19.20;99.90;;;;;;4914869;29;20194;-70
2023/11/19 10:20:36;;;;;;;1.37;0.87;;;20.90;99.90;;;;;;4915644;29;20482;-70
2023/11/19 10:23:02;;;;;;;1.10;1.00;;;22.20;99.90;;;;;;4913068;29;20567;-70
2023/11/19 10:25:29;;;;;;;2.03;0.90;;;22.70;99.90;;;;;;4913806;29;20474;-70
2023/11/19 10:27:56;;;;;;;2.63;0.90;;;23.50;99.90;;;;;;4913321;29;20677;-70
2023/11/19 10:30:23;;;;;;;1.43;1.00;;;24.40;99.90;;;;;;4915575;29;20422;-70
2023/11/19 10:33:05;;;;;;;1.63;1.20;;;22.40;99.90;;;;;;4915599;29;20414;-70
2023/11/19 10:35:31;;;;;;;1.23;1.13;;;20.20;99.90;;;;;;4914925;29;20882;-70
2023/11/19 10:38:13;;;;;;;2.73;1.10;;;19.00;99.90;;;;;;4929575;29;20430;-70
2023/11/19 10:40:40;;;;;;;1.07;0.97;;;18.40;99.90;;;;;;4914730;29;20442;-70
2023/11/19 10:43:07;;;;;;;4.33;3.93;;;19.90;99.90;;;;;;4914819;29;20439;-70
2023/11/19 10:45:33;;;;;;;1.90;1.40;;;21.50;99.90;;;;;;4914763;29;20835;-70
2023/11/19 10:47:59;;;;;;;1.90;1.70;;;23.50;99.90;;;;;;4913440;29;20445;-70
2023/11/19 10:50:26;;;;;;;1.30;1.20;;;24.20;99.90;;;;;;4915379;29;20449;-70
2023/11/19 10:52:58;;;;;;;2.67;1.30;;;23.70;99.90;;;;;;4915510;29;20513;-70
2023/11/19 10:55:27;;;;;;;3.13;1.40;;;23.00;99.90;;;;;;4914578;29;20461;-70
2023/11/19 10:57:58;;;;;;;4.10;1.10;;;23.60;99.90;;;;;;4914342;29;20433;-70
2023/11/19 11:00:25;;;;;;;2.03;1.63;;;24.00;99.90;;;;;;4908863;29;20430;-71
2023/11/19 11:02:56;;;;;;;1.50;0.83;;;25.00;99.90;;;;;;4918566;29;20466;-71
2023/11/19 11:05:23;;;;;;;1.47;1.20;;;25.50;95.10;;;;;;4900022;29;20526;-71
2023/11/19 11:07:52;;;;;;;1.37;0.80;;;25.20;95.80;;;;;;4906836;29;20437;-71
2023/11/19 11:10:22;;;;;;;1.27;1.13;;;24.70;96.10;;;;;;4918192;29;20478;-71
2023/11/19 11:12:49;;;;;;;0.77;0.77;;;24.20;97.40;;;;;;4918566;29;20422;-70
2023/11/19 11:15:17;;;;;;;1.17;0.87;;;23.80;97.70;;;;;;4933234;29;20492;-70
2023/11/19 11:17:44;;;;;;;2.30;1.13;;;21.50;99.90;;;;;;4918459;29;20477;-70
2023/11/19 11:20:10;;;;;;;1.23;1.03;;;20.10;99.90;;;;;;4917041;29;20524;-69
2023/11/19 11:22:57;;;;;;;1.20;1.03;;;19.50;99.90;;;;;;4917752;29;20502;-69
2023/11/19 11:26:15;;;;;;;0.93;0.90;;;21.00;99.90;;;;;;4916692;29;20512;-70
2023/11/19 11:28:49;;;;;;;1.00;1.00;;;23.10;99.90;;;;;;4896759;29;20962;-70
2023/11/19 11:31:34;;;;;;;1.20;1.10;;;21.80;99.90;;;;;;4917806;29;20434;-69
2023/11/19 11:34:32;;;;;;;2.63;1.27;;;20.00;99.90;;;;;;4913328;29;20958;-69
2023/11/19 11:37:13;;;;;;;1.50;1.37;;;19.10;99.90;;;;;;4895007;29;20442;-69
2023/11/19 11:39:40;;;;;;;2.77;2.00;;;17.90;99.90;;;;;;4917254;29;20497;-69
2023/11/19 11:42:18;;;;;;;2.23;1.93;;;17.50;99.90;;;;;;4917837;29;20467;-69
2023/11/19 11:45:04;;;;;;;2.27;1.50;;;18.00;99.90;;;;;;4916989;29;20512;-70
2023/11/19 11:47:42;;;;;;;2.20;1.40;;;19.40;99.90;;;;;;4917308;29;21233;-69
2023/11/19 11:50:11;;;;;;;1.50;1.00;;;19.50;99.90;;;;;;4915749;29;20442;-69
2023/11/19 11:52:58;;;;;;;1.70;1.60;;;19.60;99.90;;;;;;4917703;29;20467;-70
2023/11/19 11:55:51;;;;;;;2.37;1.10;;;19.50;99.90;;;;;;4915439;29;20512;-69
2023/11/19 11:58:25;;;;;;;2.27;1.40;;;20.00;99.90;;;;;;4917270;29;20439;-69
2023/11/19 12:00:51;;;;;;;1.30;1.30;;;20.80;99.90;;;;;;4917920;29;20452;-70
2023/11/19 12:03:21;;;;;;;1.93;1.00;;;21.60;99.90;;;;;;4917333;29;20937;-70
2023/11/19 12:05:48;;;;;;;1.27;1.07;;;23.10;99.20;;;;;;4916595;29;20545;-69
2023/11/19 12:08:15;;;;;;;1.63;1.13;;;21.80;99.90;;;;;;4916601;29;20434;-69
2023/11/19 12:10:49;;;;;;;2.03;1.40;;;19.80;99.90;;;;;;4914469;29;20986;-69
2023/11/19 12:13:18;;;;;;;1.57;1.40;;;18.70;99.90;;;;;;4917552;29;20441;-69
2023/11/19 12:15:56;;;;;;;1.67;1.40;;;18.00;99.90;;;;;;4917611;29;20533;-69
2023/11/19 12:18:23;;;;;;;1.73;1.47;;;17.40;99.90;;;;;;4917246;29;20410;-69
2023/11/19 12:20:48;;;;;;;1.80;1.27;;;16.80;99.90;;;;;;4917308;29;20453;-69
2023/11/19 12:23:14;;;;;;;1.30;1.20;;;17.40;99.90;;;;;;4916791;29;20861;-69
2023/11/19 12:25:40;;;;;;;1.53;1.27;;;17.60;99.90;;;;;;4911688;29;20200;-69
2023/11/19 12:28:06;;;;;;;0.90;0.90;;;17.30;99.90;;;;;;4916961;29;20422;-69
2023/11/19 12:30:32;;;;;;;1.37;1.27;;;17.40;99.90;;;;;;4915846;29;20187;-69
2023/11/19 12:32:58;;;;;;;1.83;1.10;;;18.00;99.90;;;;;;4915381;29;20217;-69
2023/11/19 12:35:24;;;;;;;1.80;1.40;;;18.30;99.90;;;;;;4915700;29;20509;-69
2023/11/19 12:37:50;;;;;;;2.40;2.23;;;19.80;99.90;;;;;;4916183;29;20485;-69
2023/11/19 12:40:25;;;;;;;3.33;2.20;;;21.10;99.90;;;;;;4916548;29;20174;-69
2023/11/19 12:42:52;;;;;;;1.57;1.43;;;21.90;98.80;;;;;;4916995;29;20465;-69
2023/11/19 12:45:19;;;;;;;1.70;1.60;;;21.50;97.80;;;;;;4917080;29;20453;-69
2023/11/19 12:47:49;;;;;;;1.93;1.30;;;20.60;99.90;;;;;;4916490;29;20429;-69
2023/11/19 12:50:17;;;;;;;1.50;1.40;;;20.50;99.90;;;;;;4916492;29;20422;-69
2023/11/19 12:52:43;;;;;;;1.43;1.33;;;20.30;99.90;;;;;;4914175;29;20437;-69